Time;durP1;ratioP1;P1;durP2;ratioP2;P2;SDS_P1;SDS_P2;PMS_P1;PMS_P2;Temp;Humidity;BMP_temperature;BMP_pressure;BME280_temperature;BME280_humidity;BME280_pressure;Samples;Min_cycle;Max_cycle;Signal;HPM_P1;HPM_P2
2023/07/03 00:01:11;;;;;;;12.27;10.60;;;;;;;20.20;52.25;98375.41;4933282;28;104203;-66
2023/07/03 00:03:39;;;;;;;13.00;10.35;;;;;;;20.17;53.05;98367.72;4935912;28;103122;-65
2023/07/03 00:06:07;;;;;;;12.02;10.68;;;;;;;20.12;53.43;98372.78;4937576;28;103336;-65
2023/07/03 00:08:36;;;;;;;15.15;11.55;;;;;;;19.95;53.83;98371.25;4942294;28;102653;-65
2023/07/03 00:11:05;;;;;;;17.15;12.98;;;;;;;19.88;54.82;98375.63;4933388;28;102676;-65
2023/07/03 00:13:33;;;;;;;17.38;12.90;;;;;;;19.80;54.92;98377.50;4927947;28;104023;-66
2023/07/03 00:16:04;;;;;;;13.07;10.60;;;;;;;19.86;54.72;98377.66;4936329;28;103450;-65
2023/07/03 00:18:35;;;;;;;15.40;12.13;;;;;;;19.96;54.87;98378.25;4938475;28;102659;-65
2023/07/03 00:21:03;;;;;;;11.25;10.02;;;;;;;20.04;54.36;98372.81;4928875;28;102795;-65
2023/07/03 00:23:30;;;;;;;13.57;10.80;;;;;;;20.08;54.33;98371.47;4937249;28;103991;-65
2023/07/03 00:25:58;;;;;;;17.70;12.77;;;;;;;19.83;54.47;98372.66;4925042;28;103309;-66
2023/07/03 00:28:26;;;;;;;19.92;12.85;;;;;;;19.32;55.11;98381.22;4940508;28;102626;-65
2023/07/03 00:30:54;;;;;;;17.48;12.55;;;;;;;19.29;54.70;98381.56;4930891;28;103071;-65
2023/07/03 00:33:24;;;;;;;16.23;11.30;;;;;;;19.56;53.51;98375.81;4935577;28;102921;-65
2023/07/03 00:35:52;;;;;;;11.15;9.30;;;;;;;19.91;52.73;98375.28;4925925;28;103016;-65
2023/07/03 00:38:20;;;;;;;15.25;11.20;;;;;;;19.80;52.68;98377.50;4923759;28;103706;-65
2023/07/03 00:40:48;;;;;;;17.13;12.20;;;;;;;19.72;52.83;98385.59;4933844;28;102756;-65
2023/07/03 00:43:17;;;;;;;15.80;11.40;;;;;;;19.75;52.64;98378.06;4911829;28;103420;-65
2023/07/03 00:45:46;;;;;;;14.90;11.73;;;;;;;19.75;52.49;98379.91;4922833;28;103347;-65
2023/07/03 00:48:15;;;;;;;16.88;12.00;;;;;;;19.57;53.11;98382.81;4927339;28;102706;-65
2023/07/03 00:50:46;;;;;;;16.27;11.70;;;;;;;19.79;52.70;98379.34;4937299;28;103012;-65
2023/07/03 00:53:15;;;;;;;14.90;11.57;;;;;;;19.86;52.61;98376.81;4938494;28;103376;-65
2023/07/03 00:55:43;;;;;;;16.55;12.57;;;;;;;19.76;52.87;98374.34;4926743;28;103860;-66
2023/07/03 00:58:11;;;;;;;16.73;12.45;;;;;;;19.65;52.78;98375.59;4923170;28;102821;-65
2023/07/03 01:00:47;;;;;;;15.77;11.77;;;;;;;19.91;52.65;98380.63;4932258;28;104050;-66
2023/07/03 01:03:23;;;;;;;16.13;12.43;;;;;;;19.40;53.05;98375.88;4944423;28;104426;-65
2023/07/03 01:05:55;;;;;;;17.97;12.20;;;;;;;19.58;52.86;98373.78;4940152;28;103294;-66
2023/07/03 01:08:25;;;;;;;15.63;11.45;;;;;;;20.01;51.88;98369.69;4927965;28;102926;-65
2023/07/03 01:10:55;;;;;;;16.65;11.80;;;;;;;19.82;52.26;98370.97;4926468;28;102713;-65
2023/07/03 01:13:27;;;;;;;16.70;11.73;;;;;;;19.45;53.18;98374.34;4943717;28;103405;-65
2023/07/03 01:15:57;;;;;;;11.02;9.32;;;;;;;20.04;52.17;98369.34;4923570;28;103384;-65
2023/07/03 01:18:26;;;;;;;14.80;11.50;;;;;;;19.79;52.31;98371.31;4936250;28;102821;-66
2023/07/03 01:21:03;;;;;;;16.63;11.57;;;;;;;19.83;52.07;98367.28;4942823;28;102715;-65
2023/07/03 01:23:37;;;;;;;14.75;11.05;;;;;;;20.16;51.45;98363.38;4923615;28;103273;-65
2023/07/03 01:26:08;;;;;;;13.77;11.60;;;;;;;19.88;51.84;98367.59;4942923;28;103264;-65
2023/07/03 01:28:38;;;;;;;18.65;12.40;;;;;;;20.19;51.53;98359.50;4925344;28;102949;-65
2023/07/03 01:31:07;;;;;;;14.73;10.88;;;;;;;20.06;51.78;98368.13;4941320;28;102824;-65
2023/07/03 01:33:40;;;;;;;18.35;12.50;;;;;;;20.20;51.25;98364.69;4928634;28;103748;-65
2023/07/03 01:36:12;;;;;;;16.38;11.32;;;;;;;20.19;51.51;98368.38;4942978;28;103269;-65
2023/07/03 01:38:43;;;;;;;15.05;11.00;;;;;;;20.37;50.76;98360.06;4927816;28;102749;-66
2023/07/03 01:41:15;;;;;;;12.68;9.70;;;;;;;20.41;51.07;98355.13;4929692;28;102751;-65
2023/07/03 01:43:46;;;;;;;12.10;9.50;;;;;;;20.56;50.68;98356.03;4929305;28;103562;-65
2023/07/03 01:46:16;;;;;;;11.43;9.80;;;;;;;20.60;50.31;98351.97;4939472;28;103930;-66
2023/07/03 01:48:44;;;;;;;12.67;10.20;;;;;;;20.59;50.49;98359.19;4927283;28;103016;-65
2023/07/03 01:51:17;;;;;;;11.52;9.30;;;;;;;20.72;50.42;98350.50;4928788;28;104207;-65
2023/07/03 01:53:50;;;;;;;13.88;10.18;;;;;;;20.68;50.28;98352.72;4941556;28;103782;-65
2023/07/03 01:56:24;;;;;;;13.27;10.80;;;;;;;20.61;50.41;98348.25;4915793;28;103276;-66
2023/07/03 01:58:55;;;;;;;15.93;11.40;;;;;;;20.65;50.21;98346.88;4933203;28;102938;-65
2023/07/03 02:01:30;;;;;;;12.43;9.52;;;;;;;20.75;50.44;98342.06;4924588;28;104099;-65
2023/07/03 02:04:02;;;;;;;15.70;11.10;;;;;;;20.81;50.06;98344.03;4925664;28;103523;-65
2023/07/03 02:06:34;;;;;;;14.30;10.48;;;;;;;20.82;49.78;98348.38;4932909;28;103205;-65
2023/07/03 02:09:05;;;;;;;14.07;10.53;;;;;;;20.71;50.83;98346.16;4942214;28;102927;-65
2023/07/03 02:11:37;;;;;;;16.17;11.13;;;;;;;20.76;50.53;98338.38;4923939;28;103605;-65
2023/07/03 02:14:08;;;;;;;12.47;9.27;;;;;;;20.87;49.98;98340.63;4924277;28;103803;-65
2023/07/03 02:16:38;;;;;;;11.63;9.52;;;;;;;20.93;49.90;98347.94;4921214;28;103504;-66
2023/07/03 02:19:06;;;;;;;17.83;12.23;;;;;;;20.59;50.79;98345.75;4940381;28;102754;-65
2023/07/03 02:21:36;;;;;;;14.70;11.18;;;;;;;20.67;50.70;98344.84;4924323;28;103011;-65
2023/07/03 02:24:05;;;;;;;12.40;9.27;;;;;;;20.89;49.90;98353.84;4924022;28;103262;-66
2023/07/03 02:26:33;;;;;;;11.30;9.20;;;;;;;20.96;49.97;98354.78;4926820;28;103218;-65
2023/07/03 02:29:02;;;;;;;13.63;10.10;;;;;;;20.90;50.09;98345.63;4928850;28;103000;-65
2023/07/03 02:31:30;;;;;;;15.17;11.00;;;;;;;20.67;50.71;98351.06;4944411;28;103920;-65
2023/07/03 02:34:00;;;;;;;10.93;9.05;;;;;;;20.74;50.71;98353.84;4924639;28;103103;-64
2023/07/03 02:36:34;;;;;;;9.73;7.47;;;;;;;20.98;49.94;98353.59;4942906;28;103214;-65
2023/07/03 02:39:04;;;;;;;10.73;8.73;;;;;;;21.05;50.15;98346.44;4931125;28;102828;-65
2023/07/03 02:41:32;;;;;;;13.43;9.33;;;;;;;21.00;50.45;98346.16;4923450;28;104285;-65
2023/07/03 02:44:02;;;;;;;12.13;9.45;;;;;;;21.07;50.24;98347.13;4940519;28;103319;-64
2023/07/03 02:46:34;;;;;;;15.10;10.82;;;;;;;21.01;49.53;98342.47;4942789;28;103470;-65
2023/07/03 02:49:03;;;;;;;14.37;11.00;;;;;;;20.91;49.33;98341.09;4929374;28;103358;-65
2023/07/03 02:51:33;;;;;;;14.90;10.35;;;;;;;20.93;49.88;98333.66;4941121;28;102764;-65
2023/07/03 02:54:04;;;;;;;11.60;8.98;;;;;;;21.06;49.62;98337.38;4926688;28;103213;-65
2023/07/03 02:56:33;;;;;;;11.88;9.25;;;;;;;21.13;49.17;98335.66;4927932;28;104272;-65
2023/07/03 02:59:03;;;;;;;10.85;8.95;;;;;;;21.18;49.31;98327.88;4941767;28;102930;-65
2023/07/03 03:01:36;;;;;;;14.73;10.33;;;;;;;21.15;48.96;98335.47;4922061;28;105376;-65
2023/07/03 03:04:05;;;;;;;13.38;10.25;;;;;;;21.15;48.92;98333.63;4929772;28;105171;-65
2023/07/03 03:06:33;;;;;;;13.73;9.73;;;;;;;21.16;48.91;98331.75;4940284;28;103286;-65
2023/07/03 03:09:01;;;;;;;13.67;9.73;;;;;;;21.16;49.02;98334.44;4926333;28;103007;-65
2023/07/03 03:11:32;;;;;;;17.00;11.73;;;;;;;20.69;49.63;98332.06;4930134;28;102960;-65
2023/07/03 03:14:00;;;;;;;14.65;11.23;;;;;;;20.71;49.99;98335.41;4938381;28;103271;-65
2023/07/03 03:16:30;;;;;;;13.98;10.27;;;;;;;20.83;49.97;98327.75;4920703;28;103508;-64
2023/07/03 03:18:58;;;;;;;12.67;9.50;;;;;;;20.93;49.70;98329.13;4940668;28;102632;-69
2023/07/03 03:21:29;;;;;;;12.15;9.85;;;;;;;21.05;49.24;98335.69;4910107;28;102985;-69
2023/07/03 03:23:58;;;;;;;13.17;10.20;;;;;;;21.05;49.56;98334.88;4935729;28;104111;-68
2023/07/03 03:26:26;;;;;;;13.98;10.35;;;;;;;20.85;49.92;98331.91;4921400;28;103348;-68
2023/07/03 03:28:57;;;;;;;15.63;11.43;;;;;;;20.74;50.18;98327.00;4940736;28;102644;-68
2023/07/03 03:31:26;;;;;;;16.67;11.37;;;;;;;20.96;49.90;98330.63;4927035;28;102850;-68
2023/07/03 03:34:01;;;;;;;14.15;10.30;;;;;;;20.98;50.22;98321.34;4917334;28;103396;-69
2023/07/03 03:36:32;;;;;;;13.25;10.45;;;;;;;21.03;50.48;98321.63;4938611;28;103248;-69
2023/07/03 03:39:01;;;;;;;13.73;11.25;;;;;;;20.98;49.61;98315.16;4921616;28;102787;-68
2023/07/03 03:41:29;;;;;;;15.13;11.05;;;;;;;20.88;49.95;98326.19;4923875;28;103201;-72
2023/07/03 03:43:57;;;;;;;11.70;9.82;;;;;;;21.07;49.79;98322.97;4941415;28;103278;-72
2023/07/03 03:46:26;;;;;;;13.73;11.02;;;;;;;20.80;49.99;98323.56;4924643;28;103359;-72
2023/07/03 03:48:54;;;;;;;14.82;10.30;;;;;;;21.03;49.90;98328.84;4929394;28;102702;-72
2023/07/03 03:51:23;;;;;;;15.05;10.85;;;;;;;21.03;49.56;98335.06;4918342;28;103086;-73
2023/07/03 03:53:51;;;;;;;17.00;11.43;;;;;;;21.03;49.55;98329.69;4923992;28;104118;-76
2023/07/03 03:56:20;;;;;;;17.00;11.63;;;;;;;20.66;50.78;98338.63;4938318;28;103254;-76
2023/07/03 03:58:48;;;;;;;16.02;10.55;;;;;;;20.75;50.67;98331.34;4913490;28;102791;-76
2023/07/03 04:01:16;;;;;;;9.38;8.35;;;;;;;21.07;49.93;98328.34;4921945;28;102986;-76
2023/07/03 04:03:45;;;;;;;12.77;9.70;;;;;;;21.03;50.24;98335.06;4925295;28;103287;-75
2023/07/03 04:06:16;;;;;;;15.75;11.43;;;;;;;20.90;50.37;98336.72;4941986;28;103263;-76
2023/07/03 04:08:48;;;;;;;13.13;9.65;;;;;;;20.90;50.18;98337.56;4933410;28;102903;-74
2023/07/03 04:11:16;;;;;;;17.17;11.30;;;;;;;20.51;51.07;98345.00;4940389;28;104028;-75
2023/07/03 04:13:44;;;;;;;17.00;11.68;;;;;;;20.28;51.27;98344.19;4941947;28;103300;-75
2023/07/03 04:16:13;;;;;;;13.40;10.75;;;;;;;20.47;51.75;98343.69;4940135;28;102978;-73
2023/07/03 04:18:41;;;;;;;14.63;10.43;;;;;;;20.67;50.98;98339.47;4938896;28;103177;-74
2023/07/03 04:21:09;;;;;;;14.70;11.32;;;;;;;20.75;50.99;98342.91;4923326;28;102977;-74
2023/07/03 04:23:37;;;;;;;15.95;11.27;;;;;;;20.76;50.95;98343.75;4940641;28;104157;-73
2023/07/03 04:26:06;;;;;;;14.20;10.67;;;;;;;20.87;50.90;98340.63;4940143;28;103368;-74
2023/07/03 04:28:35;;;;;;;14.70;10.90;;;;;;;20.90;50.88;98342.09;4939650;28;102751;-74
2023/07/03 04:31:03;;;;;;;16.27;11.88;;;;;;;20.60;51.55;98344.72;4942465;28;103138;-73
2023/07/03 04:33:31;;;;;;;15.00;11.30;;;;;;;20.60;51.33;98341.25;4945574;28;104114;-74
2023/07/03 04:35:59;;;;;;;16.57;11.33;;;;;;;20.52;51.42;98344.00;4927875;28;103250;-74
2023/07/03 04:38:27;;;;;;;15.60;11.07;;;;;;;20.66;51.44;98345.88;4927112;28;103087;-74
2023/07/03 04:40:56;;;;;;;15.25;11.05;;;;;;;20.59;51.79;98358.34;4942041;28;102678;-74
2023/07/03 04:43:25;;;;;;;16.60;11.77;;;;;;;20.34;52.34;98356.88;4942656;28;103405;-74
2023/07/03 04:45:56;;;;;;;11.35;9.93;;;;;;;20.83;51.47;98361.63;4927523;28;103236;-74
2023/07/03 04:48:24;;;;;;;13.75;10.57;;;;;;;20.65;51.70;98369.19;4946970;28;102656;-74
2023/07/03 04:50:52;;;;;;;15.63;11.33;;;;;;;20.71;51.50;98356.91;4949122;28;104038;-75
2023/07/03 04:53:21;;;;;;;11.85;9.80;;;;;;;20.83;51.14;98355.41;4939074;28;104157;-74
2023/07/03 04:55:50;;;;;;;15.35;10.60;;;;;;;20.66;51.68;98357.41;4942110;28;103266;-74
2023/07/03 04:58:18;;;;;;;14.93;10.77;;;;;;;20.65;51.93;98354.94;4945944;28;102662;-74
2023/07/03 05:00:47;;;;;;;14.50;10.63;;;;;;;20.89;51.34;98365.41;4935116;28;102957;-74
2023/07/03 05:03:17;;;;;;;16.10;11.30;;;;;;;20.52;52.02;98370.84;4931576;28;104082;-74
2023/07/03 05:05:45;;;;;;;14.65;10.07;;;;;;;20.61;52.09;98365.19;4940348;28;103280;-73
2023/07/03 05:08:13;;;;;;;17.00;11.07;;;;;;;20.46;52.66;98371.56;4928945;28;103191;-74
2023/07/03 05:10:41;;;;;;;14.10;10.55;;;;;;;21.00;52.48;98372.19;4939763;28;103077;-69
2023/07/03 05:13:09;;;;;;;13.10;10.30;;;;;;;20.81;51.42;98377.09;4923963;28;103838;-69
2023/07/03 05:15:37;;;;;;;14.40;10.20;;;;;;;20.89;51.49;98378.84;4936385;28;103230;-69
2023/07/03 05:18:06;;;;;;;14.83;10.87;;;;;;;20.97;51.31;98386.00;4937518;28;103000;-69
2023/07/03 05:20:37;;;;;;;12.80;9.25;;;;;;;21.11;51.14;98386.03;4918729;28;103188;-69
2023/07/03 05:23:05;;;;;;;13.23;10.05;;;;;;;21.32;50.74;98382.59;4939339;28;103004;-69
2023/07/03 05:25:33;;;;;;;12.30;8.53;;;;;;;21.57;50.43;98389.34;4931941;28;103166;-70
2023/07/03 05:28:01;;;;;;;12.80;9.83;;;;;;;21.45;50.86;98388.13;4939944;28;102941;-69
2023/07/03 05:30:29;;;;;;;15.57;9.67;;;;;;;21.24;51.02;98385.38;4921008;28;102930;-70
2023/07/03 05:32:57;;;;;;;11.15;9.30;;;;;;;21.60;50.08;98390.81;4939370;28;103070;-70
2023/07/03 05:35:29;;;;;;;8.60;7.28;;;;;;;21.88;50.13;98394.50;4936670;28;103212;-69
2023/07/03 05:37:59;;;;;;;16.25;10.15;;;;;;;21.48;50.25;98395.00;4936319;28;102767;-70
2023/07/03 05:40:27;;;;;;;12.35;8.95;;;;;;;21.60;50.10;98397.03;4934646;28;102815;-70
2023/07/03 05:42:55;;;;;;;12.13;8.65;;;;;;;21.87;50.10;98392.81;4939659;28;103259;-70
2023/07/03 05:45:24;;;;;;;11.65;8.70;;;;;;;22.19;49.41;98391.53;4938775;28;103175;-70
2023/07/03 05:47:51;;;;;;;12.48;9.20;;;;;;;22.12;49.24;98394.13;4941010;28;104301;-70
2023/07/03 05:50:19;;;;;;;11.93;8.97;;;;;;;22.19;49.50;98391.53;4937820;28;104241;-70
2023/07/03 05:52:55;;;;;;;15.15;10.00;;;;;;;22.00;49.73;98393.00;4938506;28;103303;-69
2023/07/03 05:55:23;;;;;;;11.25;8.63;;;;;;;22.38;49.20;98401.66;4925549;28;103188;-70
2023/07/03 05:57:50;;;;;;;13.77;9.90;;;;;;;21.91;49.48;98396.81;4928320;28;103066;-70
2023/07/03 06:00:19;;;;;;;12.70;9.40;;;;;;;22.12;49.63;98391.44;4939546;28;103143;-70
2023/07/03 06:02:53;;;;;;;14.68;10.07;;;;;;;22.17;49.17;98393.59;4920843;28;103044;-70
2023/07/03 06:05:21;;;;;;;14.20;10.02;;;;;;;22.03;49.57;98403.38;4938653;28;103263;-69
2023/07/03 06:07:49;;;;;;;12.73;9.47;;;;;;;22.29;49.11;98394.72;4940381;28;102740;-69
2023/07/03 06:10:19;;;;;;;12.75;9.32;;;;;;;22.48;49.25;98391.41;4938745;28;103179;-69
2023/07/03 06:12:47;;;;;;;13.38;9.82;;;;;;;22.26;49.17;98395.13;4930987;28;103023;-74
2023/07/03 06:15:16;;;;;;;15.65;9.88;;;;;;;22.49;48.66;98393.88;4937137;28;103200;-73
2023/07/03 06:17:44;;;;;;;16.40;9.83;;;;;;;22.60;49.03;98399.78;4939312;28;102780;-74
2023/07/03 06:20:12;;;;;;;14.27;9.27;;;;;;;22.79;48.47;98399.16;4929142;28;104305;-69
2023/07/03 06:22:41;;;;;;;11.97;8.97;;;;;;;22.59;48.94;98406.19;4936125;28;104047;-69
2023/07/03 06:25:11;;;;;;;14.07;9.48;;;;;;;22.32;49.02;98408.63;4938372;28;103200;-69
2023/07/03 06:27:40;;;;;;;9.63;7.73;;;;;;;22.75;47.96;98411.34;4942446;28;103176;-69
2023/07/03 06:30:08;;;;;;;13.23;9.23;;;;;;;22.43;48.46;98405.44;4941427;28;102857;-69
2023/07/03 06:32:37;;;;;;;13.77;8.75;;;;;;;22.33;48.35;98404.94;4934553;28;103338;-68
2023/07/03 06:35:06;;;;;;;14.88;9.30;;;;;;;22.37;48.34;98416.16;4934352;28;103503;-69
2023/07/03 06:37:35;;;;;;;11.52;8.82;;;;;;;22.76;47.81;98415.69;4937026;28;102841;-69
2023/07/03 06:40:09;;;;;;;17.42;9.48;;;;;;;22.60;47.53;98419.44;4934772;28;102788;-70
2023/07/03 06:42:37;;;;;;;14.95;8.82;;;;;;;22.70;48.15;98416.47;4940007;28;104164;-69
2023/07/03 06:45:12;;;;;;;14.05;8.65;;;;;;;22.69;47.86;98422.88;4935796;28;103209;-69
2023/07/03 06:47:44;;;;;;;14.25;8.60;;;;;;;22.81;47.53;98427.56;4936378;28;102695;-70
2023/07/03 06:50:14;;;;;;;14.15;8.68;;;;;;;22.50;47.72;98425.19;4917783;28;103180;-74
2023/07/03 06:52:43;;;;;;;9.95;7.43;;;;;;;23.07;46.81;98421.53;4923184;28;104366;-75
2023/07/03 06:55:11;;;;;;;14.00;9.00;;;;;;;22.70;47.69;98424.56;4916689;28;104837;-74
2023/07/03 06:57:39;;;;;;;11.32;8.10;;;;;;;22.84;47.70;98429.03;4936578;28;103725;-75
2023/07/03 07:00:08;;;;;;;13.30;8.98;;;;;;;23.10;47.45;98434.63;4936030;28;102723;-74
2023/07/03 07:02:38;;;;;;;14.70;9.32;;;;;;;22.98;47.34;98434.31;4939008;28;103497;-75
2023/07/03 07:05:06;;;;;;;13.68;8.88;;;;;;;22.61;47.11;98436.44;4943465;28;103300;-75
2023/07/03 07:07:35;;;;;;;12.88;8.65;;;;;;;22.58;47.37;98434.13;4918672;28;102990;-75
2023/07/03 07:10:03;;;;;;;13.38;9.00;;;;;;;22.54;47.44;98434.50;4939707;28;103114;-75
2023/07/03 07:12:31;;;;;;;11.15;7.97;;;;;;;22.71;47.73;98428.91;4935785;28;103305;-75
2023/07/03 07:14:59;;;;;;;13.65;9.07;;;;;;;22.56;47.73;98434.34;4934600;28;103238;-75
2023/07/03 07:17:27;;;;;;;14.63;8.60;;;;;;;22.80;47.35;98433.13;4937737;28;102634;-74
2023/07/03 07:20:18;;;;;;;11.52;7.75;;;;;;;23.00;47.62;98428.72;4936896;28;103075;-74
2023/07/03 07:22:48;;;;;;;14.83;9.13;;;;;;;22.38;48.52;98429.41;4939048;28;104680;-74
2023/07/03 07:25:16;;;;;;;11.77;8.40;;;;;;;22.87;48.25;98442.94;4942749;28;103756;-73
2023/07/03 07:27:44;;;;;;;13.07;9.25;;;;;;;22.12;50.01;98434.50;4924220;28;107586;-75
2023/07/03 07:30:13;;;;;;;16.35;9.30;;;;;;;21.50;51.57;98444.03;4935865;28;102900;-74
2023/07/03 07:32:41;;;;;;;13.43;9.02;;;;;;;22.12;50.70;98444.44;4920904;28;103313;-75
2023/07/03 07:35:12;;;;;;;14.25;9.20;;;;;;;21.64;51.81;98443.19;4938170;28;103485;-75
2023/07/03 07:37:41;;;;;;;14.20;9.15;;;;;;;22.28;50.94;98447.72;4940259;28;102577;-75
2023/07/03 07:40:11;;;;;;;13.60;9.48;;;;;;;22.18;50.76;98447.19;4932337;28;104215;-75
2023/07/03 07:42:41;;;;;;;15.25;9.48;;;;;;;22.10;50.85;98447.31;4936851;28;103302;-74
2023/07/03 07:45:10;;;;;;;15.65;9.57;;;;;;;21.53;52.67;98447.16;4938328;28;103235;-75
2023/07/03 07:47:39;;;;;;;15.35;9.23;;;;;;;21.26;53.17;98445.13;4921487;28;102676;-75
2023/07/03 07:50:08;;;;;;;15.98;9.70;;;;;;;21.07;53.94;98448.31;4938739;28;102589;-75
2023/07/03 07:52:36;;;;;;;13.63;9.52;;;;;;;21.59;52.96;98445.59;4914989;28;104251;-75
2023/07/03 07:55:07;;;;;;;14.27;9.00;;;;;;;21.45;53.36;98454.47;4920900;28;102983;-74
2023/07/03 07:57:35;;;;;;;15.70;9.35;;;;;;;21.61;53.32;98454.31;4942848;28;103363;-74
2023/07/03 08:00:17;;;;;;;14.90;9.30;;;;;;;22.50;51.39;98456.63;4940467;28;102797;-75
2023/07/03 08:02:45;;;;;;;11.68;8.32;;;;;;;23.01;50.52;98454.66;4933948;28;103065;-73
2023/07/03 08:05:13;;;;;;;11.13;8.13;;;;;;;24.14;47.83;98457.84;4936123;28;102862;-73
2023/07/03 08:07:44;;;;;;;13.82;9.10;;;;;;;23.99;47.93;98451.72;4938911;28;102815;-69
2023/07/03 08:10:14;;;;;;;15.63;9.73;;;;;;;23.40;50.36;98459.50;4942392;28;103361;-73
2023/07/03 08:12:42;;;;;;;15.63;9.95;;;;;;;23.42;49.18;98452.91;4937182;28;102806;-70
2023/07/03 08:15:12;;;;;;;15.73;9.88;;;;;;;22.77;51.12;98455.03;4938039;28;103338;-71
2023/07/03 08:17:40;;;;;;;17.30;9.73;;;;;;;21.72;53.75;98459.22;4932174;28;103337;-71
2023/07/03 08:20:11;;;;;;;15.98;10.18;;;;;;;21.21;54.81;98461.81;4916552;28;103996;-72
2023/07/03 08:22:39;;;;;;;13.57;9.30;;;;;;;22.30;52.56;98466.34;4938123;28;104596;-70
2023/07/03 08:25:08;;;;;;;15.40;10.17;;;;;;;22.01;53.37;98464.56;4930085;28;103100;-71
2023/07/03 08:27:38;;;;;;;15.10;9.38;;;;;;;22.41;52.56;98480.16;4934170;28;103875;-71
2023/07/03 08:30:07;;;;;;;16.45;9.48;;;;;;;22.39;52.11;98473.28;4938260;28;103061;-71
2023/07/03 08:32:35;;;;;;;14.60;9.25;;;;;;;23.35;49.16;98470.88;4936435;28;103347;-72
2023/07/03 08:35:04;;;;;;;16.55;9.13;;;;;;;23.51;49.59;98473.28;4915766;28;104742;-71
2023/07/03 08:37:35;;;;;;;15.93;9.20;;;;;;;22.67;51.00;98474.25;4932614;28;102732;-71
2023/07/03 08:40:05;;;;;;;14.20;9.10;;;;;;;23.02;49.70;98475.16;4930655;28;103545;-71
2023/07/03 08:42:44;;;;;;;15.68;9.63;;;;;;;22.65;50.57;98472.78;4933973;28;103301;-71
2023/07/03 08:45:16;;;;;;;12.98;8.48;;;;;;;23.90;48.52;98474.50;4933532;28;103180;-72
2023/07/03 08:47:51;;;;;;;14.23;9.10;;;;;;;23.36;48.39;98467.13;4932547;28;102781;-71
2023/07/03 08:50:22;;;;;;;12.60;8.30;;;;;;;23.67;47.80;98469.41;4932540;28;104092;-71
2023/07/03 08:53:04;;;;;;;11.05;8.23;;;;;;;23.91;48.47;98470.78;4939116;28;103980;-72
2023/07/03 08:55:38;;;;;;;16.25;8.70;;;;;;;23.51;48.35;98470.59;4931063;28;103461;-71
2023/07/03 08:58:09;;;;;;;12.18;8.05;;;;;;;23.81;46.52;98471.16;4933953;28;102704;-71
2023/07/03 09:01:08;;;;;;;11.47;7.60;;;;;;;25.33;46.90;98454.25;4942771;28;102984;-71
2023/07/03 09:03:50;;;;;;;11.93;8.57;;;;;;;25.45;43.83;98460.66;4938690;28;103480;-71
2023/07/03 09:06:26;;;;;;;13.65;8.35;;;;;;;25.44;42.89;98459.00;4964414;22;103279;-71
2023/07/03 09:09:07;;;;;;;13.55;8.45;;;;;;;24.68;44.52;98458.59;4976932;28;102728;-73
2023/07/03 09:11:49;;;;;;;15.63;8.60;;;;;;;24.18;46.12;98459.09;4977731;28;102721;-71
2023/07/03 09:14:27;;;;;;;13.50;7.55;;;;;;;25.55;42.33;98463.78;4976338;28;103298;-70
2023/07/03 09:16:56;;;;;;;16.45;8.82;;;;;;;24.90;43.98;98450.34;4977170;28;103260;-72
2023/07/03 09:19:27;;;;;;;13.63;8.18;;;;;;;25.78;43.12;98456.03;4973995;28;103069;-71
2023/07/03 09:22:00;;;;;;;12.43;7.53;;;;;;;26.61;42.05;98456.88;4976655;28;103268;-71
2023/07/03 09:24:35;;;;;;;13.60;8.00;;;;;;;27.22;40.10;98458.97;4974335;28;104010;-71
2023/07/03 09:27:12;;;;;;;12.43;7.63;;;;;;;26.94;40.50;98457.53;4962687;28;103224;-73
2023/07/03 09:29:43;;;;;;;15.03;7.90;;;;;;;25.72;41.30;98456.88;4978983;28;102873;-71
2023/07/03 09:32:12;;;;;;;12.10;7.78;;;;;;;25.09;43.23;98452.19;4960026;28;103013;-72
2023/07/03 09:35:08;;;;;;;11.02;7.60;;;;;;;25.34;42.28;98461.31;4974648;28;104033;-71
2023/07/03 09:37:38;;;;;;;14.55;7.38;;;;;;;25.21;41.94;98469.41;4978867;28;103437;-71
2023/07/03 09:40:09;;;;;;;11.95;8.50;;;;;;;25.75;41.32;98461.88;4975354;28;102735;-71
2023/07/03 09:42:38;;;;;;;10.77;7.13;;;;;;;26.94;39.41;98462.13;4974468;28;103501;-72
2023/07/03 09:45:15;;;;;;;11.85;7.03;;;;;;;27.40;38.89;98448.13;4957530;28;103346;-71
2023/07/03 09:47:48;;;;;;;10.55;6.63;;;;;;;27.27;39.40;98456.41;4977332;28;103138;-71
2023/07/03 09:50:27;;;;;;;10.85;6.50;;;;;;;26.77;39.98;98450.13;4975191;28;103682;-72
2023/07/03 09:52:56;;;;;;;10.88;6.47;;;;;;;27.64;37.87;98452.72;4968652;28;102670;-71
2023/07/03 09:55:41;;;;;;;10.53;6.57;;;;;;;28.10;37.04;98447.59;4971836;28;103383;-70
2023/07/03 09:58:14;;;;;;;12.88;6.50;;;;;;;28.59;35.73;98443.78;4973124;28;103471;-72
2023/07/03 10:00:50;;;;;;;10.85;6.18;;;;;;;27.95;36.41;98444.44;4979523;28;102596;-71
2023/07/03 10:03:26;;;;;;;12.50;6.45;;;;;;;28.19;36.14;98446.22;4978464;28;103051;-71
2023/07/03 10:06:07;;;;;;;10.57;6.10;;;;;;;28.06;35.42;98451.84;4970227;28;104130;-71
2023/07/03 10:08:42;;;;;;;8.07;5.55;;;;;;;28.09;35.46;98451.41;4973187;28;103420;-71
2023/07/03 10:11:13;;;;;;;8.43;6.00;;;;;;;28.45;35.84;98455.06;4974075;28;102836;-70
2023/07/03 10:13:47;;;;;;;10.00;5.72;;;;;;;28.66;34.13;98441.03;4973504;28;102667;-71
2023/07/03 10:16:22;;;;;;;9.77;5.20;;;;;;;27.60;34.86;98454.22;4970620;28;103995;-70
2023/07/03 10:18:52;;;;;;;9.27;5.00;;;;;;;28.12;34.25;98450.94;4973083;28;103199;-71
2023/07/03 10:21:22;;;;;;;7.15;4.45;;;;;;;28.30;34.17;98462.78;4973585;28;103346;-70
2023/07/03 10:23:51;;;;;;;6.18;4.55;;;;;;;28.16;34.96;98445.84;4971963;28;104211;-71
2023/07/03 10:26:33;;;;;;;6.85;4.85;;;;;;;28.24;35.65;98452.88;4975533;28;104054;-72
2023/07/03 10:29:06;;;;;;;7.82;4.53;;;;;;;27.33;34.68;98452.81;4974418;28;103295;-71
2023/07/03 10:31:40;;;;;;;8.48;4.70;;;;;;;27.32;35.44;98453.84;4952483;28;102768;-71
2023/07/03 10:34:19;;;;;;;7.65;4.90;;;;;;;26.90;36.56;98461.72;4971693;28;103851;-72
2023/07/03 10:36:49;;;;;;;6.25;4.15;;;;;;;26.98;35.76;98461.44;4980324;28;104531;-74
2023/07/03 10:39:27;;;;;;;9.18;4.38;;;;;;;27.12;35.75;98461.34;4980942;28;103225;-75
2023/07/03 10:42:04;;;;;;;7.70;4.15;;;;;;;26.18;37.21;98461.31;4966712;22;102919;-75
2023/07/03 10:44:37;;;;;;;5.10;3.83;;;;;;;26.57;36.69;98465.69;4967273;28;102980;-76
2023/07/03 10:47:24;;;;;;;6.53;4.15;;;;;;;26.61;36.39;98467.72;4956180;28;104029;-76
2023/07/03 10:49:52;;;;;;;5.65;3.80;;;;;;;26.42;37.62;98463.25;4955926;28;103330;-76
2023/07/03 10:52:31;;;;;;;6.90;3.70;;;;;;;26.05;37.90;98466.78;4954655;28;102877;-71
2023/07/03 10:55:11;;;;;;;5.67;4.00;;;;;;;27.14;37.28;98467.38;4965270;28;102820;-73
2023/07/03 10:57:46;;;;;;;7.18;4.20;;;;;;;26.90;37.05;98450.06;4957005;28;103951;-74
2023/07/03 11:00:19;;;;;;;7.83;4.60;;;;;;;26.00;39.51;98469.28;4950428;28;103379;-73
2023/07/03 11:03:01;;;;;;;7.40;4.73;;;;;;;26.86;37.70;98460.50;4958769;28;103125;-70
2023/07/03 11:05:42;;;;;;;8.40;4.30;;;;;;;27.79;36.71;98460.50;4949190;28;102913;-73
2023/07/03 11:08:21;;;;;;;9.85;4.70;;;;;;;27.28;37.29;98463.50;4951922;28;103471;-71
2023/07/03 11:11:02;;;;;;;8.43;4.57;;;;;;;26.27;38.75;98466.28;4955927;28;103091;-71
2023/07/03 11:13:37;;;;;;;8.48;4.57;;;;;;;26.54;38.63;98466.13;4958600;28;103792;-71
2023/07/03 11:16:12;;;;;;;7.93;4.17;;;;;;;27.77;37.55;98460.72;4954286;28;102806;-71
2023/07/03 11:19:03;;;;;;;7.40;4.35;;;;;;;28.21;37.60;98458.75;4956015;28;105156;-70
2023/07/03 11:21:47;;;;;;;7.97;4.50;;;;;;;26.89;39.61;98453.81;4955770;28;103228;-74
2023/07/03 11:24:21;;;;;;;7.32;4.40;;;;;;;26.02;41.32;98456.38;4955729;28;102783;-70
2023/07/03 11:26:56;;;;;;;8.23;4.50;;;;;;;27.00;39.66;98459.34;4952803;28;102717;-73
2023/07/03 11:29:29;;;;;;;7.70;4.40;;;;;;;27.68;38.23;98474.81;4954831;28;104610;-74
2023/07/03 11:31:58;;;;;;;9.15;5.05;;;;;;;28.47;36.38;98463.81;4957603;28;104032;-71